Time,TemperatureF,DewpointF,PressureIn,WindDirection,WindDirectionDegrees,WindSpeedMPH,WindSpeedGustMPH,Humidity,HourlyPrecipIn,Conditions,Clouds,dailyrainin,SoftwareType,DateUTC
2013-09-05 00:02:00,61.9,57.0,29.86,West,270,0.0,-999.0,84,-99.99,,,0.00,weatherlink.com 1.10,2013-09-05 04:02:00,
2013-09-05 00:17:00,61.6,57.0,29.86,West,270,0.0,-999.0,85,-99.99,,,0.00,weatherlink.com 1.10,2013-09-05 04:17:00,
2013-09-05 00:33:00,61.6,57.0,29.86,West,270,0.0,-999.0,86,-99.99,,,0.00,weatherlink.com 1.10,2013-09-05 04:33:00,
2013-09-05 00:48:00,61.7,57.0,29.85,West,270,0.0,-999.0,84,-99.99,,,0.00,weatherlink.com 1.10,2013-09-05 04:48:00,
2013-09-05 01:03:00,61.8,57.0,29.85,West,270,0.0,-999.0,84,-99.99,,,0.00,weatherlink.com 1.10,2013-09-05 05:03:00,
2013-09-05 01:18:00,62.3,57.0,29.84,West,270,0.0,-999.0,83,-99.99,,,0.00,weatherlink.com 1.10,2013-09-05 05:18:00,
2013-09-05 01:33:00,62.2,57.0,29.84,West,270,0.0,-999.0,83,-99.99,,,0.00,weatherlink.com 1.10,2013-09-05 05:33:00,
2013-09-05 01:48:00,62.0,58.0,29.85,West,270,0.0,-999.0,85,-99.99,,,0.00,weatherlink.com 1.10,2013-09-05 05:48:00,
2013-09-05 02:03:00,61.8,58.0,29.85,West,270,0.0,-999.0,86,-99.99,,,0.00,weatherlink.com 1.10,2013-09-05 06:03:00,
2013-09-05 02:18:00,61.6,58.0,29.84,West,270,0.0,-999.0,87,-99.99,,,0.00,weatherlink.com 1.10,2013-09-05 06:18:00,
2013-09-05 02:33:00,61.4,58.0,29.84,West,270,0.0,-999.0,87,-99.99,,,0.00,weatherlink.com 1.10,2013-09-05 06:33:00,
2013-09-05 02:48:00,61.6,58.0,29.84,West,270,0.0,-999.0,87,-99.99,,,0.00,weatherlink.com 1.10,2013-09-05 06:48:00,
2013-09-05 03:03:00,61.3,57.0,29.84,West,270,0.0,-999.0,87,-99.99,,,0.00,weatherlink.com 1.10,2013-09-05 07:03:00,
2013-09-05 03:18:00,61.1,57.0,29.84,West,270,0.0,-999.0,87,-99.99,,,0.00,weatherlink.com 1.10,2013-09-05 07:18:00,
2013-09-05 03:33:00,61.2,58.0,29.84,West,270,0.0,-999.0,89,-99.99,,,0.00,weatherlink.com 1.10,2013-09-05 07:33:00,
2013-09-05 03:48:00,61.3,58.0,29.83,West,270,0.0,-999.0,89,-99.99,,,0.00,weatherlink.com 1.10,2013-09-05 07:48:00,
2013-09-05 04:03:00,61.4,58.0,29.82,West,270,0.0,-999.0,88,-99.99,,,0.00,weatherlink.com 1.10,2013-09-05 08:03:00,
2013-09-05 04:18:00,61.3,58.0,29.82,West,270,0.0,-999.0,88,-99.99,,,0.00,weatherlink.com 1.10,2013-09-05 08:18:00,
2013-09-05 04:33:00,62.0,59.0,29.82,SSW,198,0.0,-999.0,88,-99.99,,,0.00,weatherlink.com 1.10,2013-09-05 08:33:00,
2013-09-05 04:48:00,62.1,58.0,29.84,SSW,198,0.0,-999.0,87,-99.99,,,0.00,weatherlink.com 1.10,2013-09-05 08:48:00,
2013-09-05 05:03:00,62.5,59.0,29.84,SW,231,0.0,-999.0,87,-99.99,,,0.00,weatherlink.com 1.10,2013-09-05 09:03:00,
2013-09-05 05:18:00,62.7,59.0,29.84,SW,231,0.0,-999.0,86,-99.99,,,0.00,weatherlink.com 1.10,2013-09-05 09:18:00,
2013-09-05 05:33:00,63.0,59.0,29.84,SW,231,0.0,-999.0,85,-99.99,,,0.00,weatherlink.com 1.10,2013-09-05 09:33:00,
2013-09-05 05:48:00,63.1,59.0,29.84,SW,231,0.0,-999.0,85,-99.99,,,0.00,weatherlink.com 1.10,2013-09-05 09:48:00,
2013-09-05 06:03:00,63.1,59.0,29.85,SW,231,0.0,-999.0,85,-99.99,,,0.00,weatherlink.com 1.10,2013-09-05 10:03:00,
2013-09-05 06:18:00,63.2,59.0,29.85,SW,231,0.0,-999.0,85,-99.99,,,0.00,weatherlink.com 1.10,2013-09-05 10:18:00,
2013-09-05 06:33:00,63.1,59.0,29.85,SW,231,0.0,-999.0,85,-99.99,,,0.00,weatherlink.com 1.10,2013-09-05 10:33:00,
2013-09-05 06:48:00,62.9,59.0,29.85,SW,231,0.0,-999.0,87,-99.99,,,0.00,weatherlink.com 1.10,2013-09-05 10:48:00,
2013-09-05 07:03:00,63.1,59.0,29.85,SW,231,0.0,-999.0,86,-99.99,,,0.00,weatherlink.com 1.10,2013-09-05 11:03:00,
2013-09-05 07:18:00,63.6,59.0,29.87,WSW,237,0.0,-999.0,85,-99.99,,,0.00,weatherlink.com 1.10,2013-09-05 11:18:00,
2013-09-05 07:33:00,63.8,61.0,29.87,SW,215,0.0,-999.0,89,-99.99,,,0.00,weatherlink.com 1.10,2013-09-05 11:33:00,
2013-09-05 07:48:00,62.7,60.0,29.88,SW,215,0.0,-999.0,92,-99.99,,,0.01,weatherlink.com 1.10,2013-09-05 11:48:00,
2013-09-05 08:03:00,62.4,60.0,29.88,SW,215,0.0,-999.0,93,-99.99,,,0.02,weatherlink.com 1.10,2013-09-05 12:03:00,
2013-09-05 08:18:00,62.2,61.0,29.88,SW,215,0.0,-999.0,94,-99.99,,,0.05,weatherlink.com 1.10,2013-09-05 12:18:00,
2013-09-05 08:33:00,62.5,61.0,29.89,SW,215,0.0,-999.0,95,-99.99,,,0.05,weatherlink.com 1.10,2013-09-05 12:33:00,
2013-09-05 08:48:00,62.7,61.0,29.90,SW,215,0.0,-999.0,95,-99.99,,,0.05,weatherlink.com 1.10,2013-09-05 12:48:00,
2013-09-05 09:03:00,62.5,61.0,29.91,SW,216,0.0,-999.0,96,-99.99,,,0.05,weatherlink.com 1.10,2013-09-05 13:03:00,
2013-09-05 09:18:00,62.0,60.0,29.92,NNW,342,0.0,-999.0,94,-99.99,,,0.05,weatherlink.com 1.10,2013-09-05 13:18:00,
2013-09-05 09:33:00,62.0,60.0,29.93,NNW,332,0.0,-999.0,94,-99.99,,,0.05,weatherlink.com 1.10,2013-09-05 13:33:00,
2013-09-05 09:48:00,62.3,59.0,29.93,NW,319,0.0,-999.0,90,-99.99,,,0.05,weatherlink.com 1.10,2013-09-05 13:48:00,
2013-09-05 10:03:00,62.3,59.0,29.92,NNE,12,0.0,-999.0,88,-99.99,,,0.05,weatherlink.com 1.10,2013-09-05 14:03:00,
2013-09-05 10:18:00,62.9,58.0,29.92,NNW,327,2.0,-999.0,84,-99.99,,,0.05,weatherlink.com 1.10,2013-09-05 14:18:00,
2013-09-05 10:33:00,63.2,58.0,29.92,NNE,19,0.0,-999.0,82,-99.99,,,0.05,weatherlink.com 1.10,2013-09-05 14:33:00,
2013-09-05 10:48:00,63.4,57.0,29.93,NNW,338,0.0,-999.0,80,-99.99,,,0.05,weatherlink.com 1.10,2013-09-05 14:48:00,
2013-09-05 11:03:00,63.2,57.0,29.94,North,350,0.0,-999.0,79,-99.99,,,0.05,weatherlink.com 1.10,2013-09-05 15:03:00,
2013-09-05 11:19:00,63.4,55.0,29.95,ESE,111,0.0,-999.0,74,-99.99,,,0.05,weatherlink.com 1.10,2013-09-05 15:19:00,
2013-09-05 11:34:00,63.5,54.0,29.95,NNW,341,0.0,-999.0,71,-99.99,,,0.05,weatherlink.com 1.10,2013-09-05 15:34:00,
2013-09-05 11:49:00,64.0,54.0,29.95,ENE,64,2.0,-999.0,70,-99.99,,,0.05,weatherlink.com 1.10,2013-09-05 15:49:00,
2013-09-05 12:04:00,65.1,53.0,29.95,NE,40,0.0,-999.0,66,-99.99,,,0.05,weatherlink.com 1.10,2013-09-05 16:04:00,
2013-09-05 12:19:00,65.9,52.0,29.95,North,5,1.0,-999.0,62,-99.99,,,0.05,weatherlink.com 1.10,2013-09-05 16:19:00,
2013-09-05 12:34:00,66.6,52.0,29.95,NE,34,0.0,-999.0,59,-99.99,,,0.05,weatherlink.com 1.10,2013-09-05 16:34:00,
2013-09-05 12:49:00,67.4,54.0,29.95,ESE,107,2.0,-999.0,62,-99.99,,,0.05,weatherlink.com 1.10,2013-09-05 16:49:00,
2013-09-05 13:04:00,68.0,50.0,29.94,NE,56,3.0,-999.0,52,-99.99,,,0.05,weatherlink.com 1.10,2013-09-05 17:04:00,
2013-09-05 13:19:00,68.5,46.0,29.94,ENE,74,0.0,-999.0,45,-99.99,,,0.05,weatherlink.com 1.10,2013-09-05 17:19:00,
2013-09-05 13:34:00,67.9,47.0,29.94,NE,54,1.0,-999.0,47,-99.99,,,0.05,weatherlink.com 1.10,2013-09-05 17:34:00,
2013-09-05 13:49:00,67.2,44.0,29.95,SW,216,4.0,-999.0,43,-99.99,,,0.05,weatherlink.com 1.10,2013-09-05 17:49:00,
2013-09-05 14:04:00,67.0,42.0,29.95,NNW,342,1.0,-999.0,40,-99.99,,,0.05,weatherlink.com 1.10,2013-09-05 18:04:00,
2013-09-05 14:19:00,67.9,44.0,29.95,NW,305,2.0,-999.0,42,-99.99,,,0.05,weatherlink.com 1.10,2013-09-05 18:19:00,
2013-09-05 14:34:00,67.4,45.0,29.95,SSE,168,0.0,-999.0,44,-99.99,,,0.05,weatherlink.com 1.10,2013-09-05 18:34:00,
2013-09-05 14:49:00,68.3,45.0,29.95,ENE,59,3.0,-999.0,44,-99.99,,,0.05,weatherlink.com 1.10,2013-09-05 18:49:00,
2013-09-05 15:04:00,69.0,48.0,29.95,ESE,118,1.0,-999.0,47,-99.99,,,0.05,weatherlink.com 1.10,2013-09-05 19:04:00,
2013-09-05 15:19:00,69.5,48.0,29.96,NE,40,1.0,-999.0,46,-99.99,,,0.05,weatherlink.com 1.10,2013-09-05 19:19:00,
2013-09-05 15:34:00,69.9,48.0,29.96,ENE,62,3.0,-999.0,45,-99.99,,,0.05,weatherlink.com 1.10,2013-09-05 19:34:00,
2013-09-05 15:49:00,69.9,46.0,29.96,NE,38,0.0,-999.0,42,-99.99,,,0.05,weatherlink.com 1.10,2013-09-05 19:49:00,
2013-09-05 16:04:00,71.4,46.0,29.96,South,190,3.0,-999.0,40,-99.99,,,0.05,weatherlink.com 1.10,2013-09-05 20:04:00,
2013-09-05 16:19:00,70.6,46.0,29.96,NW,314,2.0,-999.0,42,-99.99,,,0.05,weatherlink.com 1.10,2013-09-05 20:19:00,
2013-09-05 16:34:00,70.1,45.0,29.96,ESE,109,0.0,-999.0,41,-99.99,,,0.05,weatherlink.com 1.10,2013-09-05 20:34:00,
2013-09-05 16:49:00,70.0,45.0,29.96,ENE,77,0.0,-999.0,41,-99.99,,,0.05,weatherlink.com 1.10,2013-09-05 20:49:00,
2013-09-05 17:04:00,69.5,45.0,29.97,ENE,57,1.0,-999.0,42,-99.99,,,0.05,weatherlink.com 1.10,2013-09-05 21:04:00,
2013-09-05 17:19:00,69.1,44.0,29.97,NW,319,0.0,-999.0,41,-99.99,,,0.05,weatherlink.com 1.10,2013-09-05 21:19:00,
2013-09-05 17:34:00,67.8,44.0,29.98,NNE,28,1.0,-999.0,43,-99.99,,,0.05,weatherlink.com 1.10,2013-09-05 21:34:00,
2013-09-05 17:50:00,66.8,44.0,29.99,NNW,338,4.0,-999.0,44,-99.99,,,0.05,weatherlink.com 1.10,2013-09-05 21:50:00,
2013-09-05 18:05:00,66.5,43.0,30.00,ENE,63,0.0,-999.0,43,-99.99,,,0.05,weatherlink.com 1.10,2013-09-05 22:05:00,
2013-09-05 18:20:00,65.6,44.0,30.00,NNW,348,0.0,-999.0,45,-99.99,,,0.05,weatherlink.com 1.10,2013-09-05 22:20:00,
2013-09-05 18:50:00,63.8,44.0,30.01,NNE,17,1.0,-999.0,48,-99.99,,,0.05,weatherlink.com 1.10,2013-09-05 22:50:00,
2013-09-05 19:05:00,62.8,46.0,30.01,NW,323,0.0,-999.0,55,-99.99,,,0.05,weatherlink.com 1.10,2013-09-05 23:05:00,
2013-09-05 19:20:00,61.6,45.0,30.02,NW,323,0.0,-999.0,55,-99.99,,,0.05,weatherlink.com 1.10,2013-09-05 23:20:00,
2013-09-05 19:35:00,60.4,46.0,30.02,NW,323,0.0,-999.0,60,-99.99,,,0.05,weatherlink.com 1.10,2013-09-05 23:35:00,
2013-09-05 19:50:00,58.9,46.0,30.03,NW,323,0.0,-999.0,62,-99.99,,,0.05,weatherlink.com 1.10,2013-09-05 23:50:00,
2013-09-05 20:05:00,57.7,47.0,30.04,NW,323,0.0,-999.0,67,-99.99,,,0.05,weatherlink.com 1.10,2013-09-06 00:05:00,
2013-09-05 20:20:00,56.8,46.0,30.05,NW,323,0.0,-999.0,67,-99.99,,,0.05,weatherlink.com 1.10,2013-09-06 00:20:00,
2013-09-05 20:35:00,55.8,46.0,30.05,NW,323,0.0,-999.0,70,-99.99,,,0.05,weatherlink.com 1.10,2013-09-06 00:35:00,
2013-09-05 20:50:00,54.8,47.0,30.06,NW,323,0.0,-999.0,74,-99.99,,,0.05,weatherlink.com 1.10,2013-09-06 00:50:00,
2013-09-05 21:05:00,54.2,46.0,30.07,NW,323,0.0,-999.0,75,-99.99,,,0.05,weatherlink.com 1.10,2013-09-06 01:05:00,
2013-09-05 21:20:00,53.7,47.0,30.07,NW,323,0.0,-999.0,77,-99.99,,,0.05,weatherlink.com 1.10,2013-09-06 01:20:00,
2013-09-05 21:35:00,53.1,47.0,30.08,NW,323,0.0,-999.0,79,-99.99,,,0.05,weatherlink.com 1.10,2013-09-06 01:35:00,
2013-09-05 21:50:00,52.5,47.0,30.09,NW,323,0.0,-999.0,81,-99.99,,,0.05,weatherlink.com 1.10,2013-09-06 01:50:00,
2013-09-05 22:05:00,52.2,47.0,30.09,NW,323,0.0,-999.0,81,-99.99,,,0.05,weatherlink.com 1.10,2013-09-06 02:05:00,
2013-09-05 22:20:00,52.0,46.0,30.10,NW,323,0.0,-999.0,81,-99.99,,,0.05,weatherlink.com 1.10,2013-09-06 02:20:00,
2013-09-05 22:35:00,51.6,47.0,30.10,NW,323,0.0,-999.0,83,-99.99,,,0.05,weatherlink.com 1.10,2013-09-06 02:35:00,
2013-09-05 22:50:00,51.3,46.0,30.10,NW,323,0.0,-999.0,83,-99.99,,,0.05,weatherlink.com 1.10,2013-09-06 02:50:00,
2013-09-05 23:05:00,51.4,47.0,30.11,NW,323,0.0,-999.0,84,-99.99,,,0.05,weatherlink.com 1.10,2013-09-06 03:05:00,
2013-09-05 23:20:00,51.0,46.0,30.11,NW,323,0.0,-999.0,83,-99.99,,,0.05,weatherlink.com 1.10,2013-09-06 03:20:00,
2013-09-05 23:35:00,50.8,45.0,30.12,NW,323,0.0,-999.0,81,-99.99,,,0.05,weatherlink.com 1.10,2013-09-06 03:35:00,
2013-09-05 23:51:00,51.2,46.0,30.12,NW,323,0.0,-999.0,81,-99.99,,,0.05,weatherlink.com 1.10,2013-09-06 03:51:00,